createdAt,value
2019-04-27T00:02:07.811Z,51.70
2019-04-27T00:04:42.880Z,51.80
2019-04-27T00:07:21.186Z,51.60
2019-04-27T00:09:54.942Z,51.90
2019-04-27T00:12:26.377Z,51.80
2019-04-27T00:14:56.879Z,51.80
2019-04-27T00:17:49.417Z,51.80
2019-04-27T00:20:21.436Z,51.80
2019-04-27T00:22:51.281Z,51.80
2019-04-27T00:25:20.673Z,52.00
2019-04-27T00:27:50.200Z,51.90
2019-04-27T00:30:20.123Z,51.90
2019-04-27T00:32:49.731Z,51.80
2019-04-27T00:35:20.839Z,51.80
2019-04-27T00:37:53.065Z,51.80
2019-04-27T00:40:24.563Z,51.90
2019-04-27T00:42:54.242Z,51.80
2019-04-27T00:45:24.909Z,51.70
2019-04-27T00:47:59.312Z,51.70
2019-04-27T00:50:25.384Z,51.80
2019-04-27T00:52:54.894Z,51.80
2019-04-27T00:55:24.322Z,52.30
2019-04-27T00:57:58.987Z,51.80
2019-04-27T01:00:33.799Z,51.80
2019-04-27T01:03:08.207Z,51.70
2019-04-27T01:05:57.007Z,51.70
2019-04-27T01:08:26.399Z,52.10
2019-04-27T01:10:55.770Z,51.90
2019-04-27T01:13:25.179Z,51.80
2019-04-27T01:15:54.689Z,51.80
2019-04-27T01:18:24.347Z,51.80
2019-04-27T01:20:53.800Z,51.90
2019-04-27T01:23:23.190Z,51.90
2019-04-27T01:25:54.207Z,52.20
2019-04-27T01:28:25.411Z,51.80
2019-04-27T01:30:56.422Z,52.10
2019-04-27T01:33:30.290Z,52.20
2019-04-27T01:35:59.774Z,52.30
2019-04-27T01:38:29.234Z,52.40
2019-04-27T01:41:01.537Z,52.80
2019-04-27T01:43:30.931Z,53.10
2019-04-27T01:46:00.994Z,53.20
2019-04-27T01:48:31.760Z,53.40
2019-04-27T01:51:01.134Z,53.60
2019-04-27T01:53:30.546Z,54.60
2019-04-27T01:56:00.047Z,53.70
2019-04-27T01:58:32.214Z,53.70
2019-04-27T02:01:19.422Z,54.10
2019-04-27T02:03:53.422Z,54.10
2019-04-27T02:06:22.795Z,54.10
2019-04-27T02:08:52.178Z,54.50
2019-04-27T02:11:28.793Z,54.70
2019-04-27T02:13:59.418Z,54.60
2019-04-27T02:16:30.554Z,54.80
2019-04-27T02:19:00.194Z,54.70
2019-04-27T02:21:29.578Z,54.80
2019-04-27T02:24:01.730Z,54.80
2019-04-27T02:26:31.123Z,54.80
2019-04-27T02:29:20.403Z,55.00
2019-04-27T02:32:07.119Z,54.80
2019-04-27T02:34:43.996Z,55.00
2019-04-27T02:37:13.381Z,55.20
2019-04-27T02:39:42.935Z,55.30
2019-04-27T02:42:12.561Z,55.30
2019-04-27T02:44:42.103Z,55.10
2019-04-27T02:47:11.500Z,55.10
2019-04-27T02:49:40.949Z,55.30
2019-04-27T02:52:19.985Z,55.30
2019-04-27T02:54:50.556Z,55.20
2019-04-27T02:57:21.307Z,55.10
2019-04-27T02:59:52.316Z,55.30
2019-04-27T03:02:30.207Z,55.30
2019-04-27T03:05:00.693Z,55.40
2019-04-27T03:07:31.084Z,55.50
2019-04-27T03:10:02.334Z,55.90
2019-04-27T03:12:49.968Z,55.20
2019-04-27T03:15:23.543Z,55.00
2019-04-27T03:17:53.680Z,55.30
2019-04-27T03:20:33.738Z,55.20
2019-04-27T03:23:04.854Z,55.90
2019-04-27T03:25:35.959Z,55.40
2019-04-27T03:28:07.070Z,55.50
2019-04-27T03:30:43.473Z,55.40
2019-04-27T03:33:13.144Z,55.20
2019-04-27T03:35:43.875Z,55.70
2019-04-27T03:38:13.675Z,55.10
2019-04-27T03:40:43.329Z,55.10
2019-04-27T03:43:14.414Z,55.10
2019-04-27T03:45:43.803Z,55.00
2019-04-27T03:48:13.186Z,55.30
2019-04-27T03:50:47.006Z,55.10
2019-04-27T03:53:23.273Z,55.00
2019-04-27T03:56:10.188Z,54.90
2019-04-27T03:58:41.410Z,55.00
2019-04-27T04:01:10.859Z,55.20
2019-04-27T04:03:40.243Z,55.10
2019-04-27T04:06:10.750Z,55.30
2019-04-27T04:08:40.374Z,55.60
2019-04-27T04:11:11.490Z,55.60
2019-04-27T04:13:42.526Z,55.80
2019-04-27T04:16:20.219Z,55.90
2019-04-27T04:18:57.436Z,56.20
2019-04-27T04:21:26.950Z,55.80
2019-04-27T04:23:56.339Z,56.30
2019-04-27T04:26:25.782Z,56.30
2019-04-27T04:28:55.179Z,56.20
2019-04-27T04:31:24.553Z,56.40
2019-04-27T04:33:53.943Z,56.40
2019-04-27T04:36:32.218Z,56.90
2019-04-27T04:39:01.760Z,56.70
2019-04-27T04:41:45.807Z,56.90
2019-04-27T04:44:34.994Z,57.00
2019-04-27T04:47:10.332Z,57.10
2019-04-27T04:49:40.039Z,57.40
2019-04-27T04:52:12.411Z,57.50
2019-04-27T04:54:43.008Z,57.60
2019-04-27T04:57:15.380Z,57.60
2019-04-27T04:59:44.772Z,57.90
2019-04-27T05:02:14.160Z,58.20
2019-04-27T05:04:43.543Z,58.30
2019-04-27T05:07:26.700Z,58.00
2019-04-27T05:09:56.083Z,57.90
2019-04-27T05:12:25.455Z,58.50
2019-04-27T05:14:59.084Z,57.90
2019-04-27T05:17:29.652Z,57.90
2019-04-27T05:20:03.667Z,57.80
2019-04-27T05:22:33.043Z,57.90
2019-04-27T05:25:02.487Z,58.20
2019-04-27T05:27:32.417Z,57.90
2019-04-27T05:30:01.810Z,58.00
2019-04-27T05:32:32.441Z,58.00
2019-04-27T05:35:01.821Z,57.90
2019-04-27T05:37:31.847Z,58.20
2019-04-27T05:40:02.440Z,57.90
2019-04-27T05:42:31.931Z,58.50
2019-04-27T05:45:22.836Z,57.80
2019-04-27T05:48:00.705Z,57.70
2019-04-27T05:50:38.749Z,57.80
2019-04-27T05:53:01.571Z,58.10
2019-04-27T05:55:31.028Z,57.60
2019-04-27T05:58:01.665Z,57.60
2019-04-27T06:00:31.328Z,57.20
2019-04-27T06:03:00.774Z,57.30
2019-04-27T06:05:30.224Z,57.30
2019-04-27T06:07:59.787Z,56.50
2019-04-27T06:10:29.677Z,56.70
2019-04-27T06:12:59.795Z,57.00
2019-04-27T06:15:30.162Z,56.80
2019-04-27T06:17:59.819Z,56.00
2019-04-27T06:20:29.203Z,55.80
2019-04-27T06:22:59.158Z,56.00
2019-04-27T06:25:30.542Z,56.30
2019-04-27T06:27:59.687Z,55.70
2019-04-27T06:30:29.329Z,56.10
2019-04-27T06:32:59.433Z,55.80
2019-04-27T06:35:29.066Z,55.50
2019-04-27T06:37:58.665Z,56.00
2019-04-27T06:40:29.046Z,55.30
2019-04-27T06:42:59.607Z,55.30
2019-04-27T06:45:29.058Z,55.50
2019-04-27T06:47:59.547Z,55.50
2019-04-27T06:50:29.596Z,55.30
2019-04-27T06:52:59.160Z,55.30
2019-04-27T06:55:29.135Z,55.00
2019-04-27T06:57:58.969Z,55.00
2019-04-27T07:00:29.615Z,55.50
2019-04-27T07:02:59.696Z,55.20
2019-04-27T07:05:29.360Z,55.00
2019-04-27T07:07:59.146Z,54.90
2019-04-27T07:10:28.784Z,55.20
2019-04-27T07:12:59.742Z,55.00
2019-04-27T07:15:29.281Z,54.70
2019-04-27T07:17:58.728Z,55.10
2019-04-27T07:20:30.316Z,55.10
2019-04-27T07:22:59.563Z,55.20
2019-04-27T07:25:29.112Z,55.20
2019-04-27T07:27:59.148Z,54.50
2019-04-27T07:30:28.964Z,54.80
2019-04-27T07:33:00.255Z,54.70
2019-04-27T07:35:29.704Z,54.80
2019-04-27T07:37:59.110Z,54.70
2019-04-27T07:40:30.258Z,54.40
2019-04-27T07:43:10.316Z,54.30
2019-04-27T07:45:40.990Z,53.60
2019-04-27T07:48:10.463Z,53.80
2019-04-27T07:50:40.807Z,53.60
2019-04-27T07:53:10.187Z,53.10
2019-04-27T07:55:39.580Z,53.10
2019-04-27T07:58:09.044Z,52.70
2019-04-27T08:00:39.522Z,52.70
2019-04-27T08:03:10.159Z,52.30
2019-04-27T08:05:39.535Z,52.00
2019-04-27T08:08:09.034Z,52.50
2019-04-27T08:10:40.278Z,51.90
2019-04-27T08:13:09.686Z,52.10
2019-04-27T08:15:39.604Z,53.50
2019-04-27T08:18:09.292Z,52.80
2019-04-27T08:20:39.142Z,52.60
2019-04-27T08:23:09.654Z,53.20
2019-04-27T08:25:52.777Z,53.90
2019-04-27T08:28:29.535Z,54.40
2019-04-27T08:31:03.584Z,54.10
2019-04-27T08:33:32.946Z,54.20
2019-04-27T08:36:02.348Z,54.60
2019-04-27T08:38:31.720Z,55.30
2019-04-27T08:41:01.123Z,55.30
2019-04-27T08:43:31.592Z,55.90
2019-04-27T08:46:00.991Z,55.30
2019-04-27T08:48:34.703Z,55.30
2019-04-27T08:51:01.533Z,54.90
2019-04-27T08:53:30.923Z,55.30
2019-04-27T08:56:00.373Z,54.30
2019-04-27T08:58:29.774Z,53.90
2019-04-27T09:01:00.299Z,54.00
2019-04-27T09:03:30.163Z,54.40
2019-04-27T09:05:59.587Z,53.90
2019-04-27T09:08:30.611Z,53.50
2019-04-27T09:11:08.886Z,53.20
2019-04-27T09:13:42.719Z,53.50
2019-04-27T09:16:18.532Z,53.60
2019-04-27T09:18:49.839Z,53.10
2019-04-27T09:21:19.465Z,51.90
2019-04-27T09:23:48.981Z,53.20
2019-04-27T09:26:24.095Z,53.00
2019-04-27T09:28:53.556Z,52.70
2019-04-27T09:31:22.939Z,53.30
2019-04-27T09:33:52.328Z,52.00
2019-04-27T09:36:21.787Z,52.10
2019-04-27T09:38:51.180Z,52.40
2019-04-27T09:41:20.667Z,51.70
2019-04-27T09:43:50.111Z,51.20
2019-04-27T09:46:19.485Z,50.30
2019-04-27T09:48:49.011Z,51.40
2019-04-27T09:51:18.383Z,48.90
2019-04-27T09:53:47.965Z,51.40
2019-04-27T09:56:17.352Z,49.40
2019-04-27T09:58:47.108Z,49.10
2019-04-27T10:01:18.161Z,49.40
2019-04-27T10:03:48.787Z,49.80
2019-04-27T10:06:18.335Z,48.90
2019-04-27T10:08:47.817Z,48.70
2019-04-27T10:11:17.768Z,48.70
2019-04-27T10:13:47.428Z,49.00
2019-04-27T10:16:16.935Z,47.90
2019-04-27T10:18:46.328Z,47.20
2019-04-27T10:21:16.324Z,48.00
2019-04-27T10:23:47.034Z,47.80
2019-04-27T10:26:16.662Z,48.30
2019-04-27T10:28:46.054Z,48.00
2019-04-27T10:31:15.584Z,46.80
2019-04-27T10:33:45.843Z,46.70
2019-04-27T10:36:20.121Z,47.10
2019-04-27T10:38:49.496Z,49.00
2019-04-27T10:41:38.237Z,49.30
2019-04-27T10:44:07.783Z,49.80
2019-04-27T10:46:39.874Z,50.00
2019-04-27T10:49:12.271Z,50.60
2019-04-27T10:51:41.667Z,49.80
2019-04-27T10:54:11.052Z,50.10
2019-04-27T10:56:43.379Z,49.70
2019-04-27T10:59:21.676Z,51.20
2019-04-27T11:01:51.139Z,50.40
2019-04-27T11:04:41.615Z,50.60
2019-04-27T11:07:12.657Z,50.80
2019-04-27T11:09:42.030Z,50.90
2019-04-27T11:12:15.803Z,50.50
2019-04-27T11:14:45.457Z,50.90
2019-04-27T11:17:16.422Z,50.40
2019-04-27T11:19:46.109Z,51.10
2019-04-27T11:22:16.042Z,49.60
2019-04-27T11:24:56.391Z,49.90
2019-04-27T11:27:25.720Z,50.20
2019-04-27T11:29:56.413Z,49.30
2019-04-27T11:32:25.964Z,48.40
2019-04-27T11:35:13.460Z,49.10
2019-04-27T11:37:45.967Z,48.30
2019-04-27T11:40:17.083Z,49.30
2019-04-27T11:42:46.548Z,49.60
2019-04-27T11:45:16.904Z,48.50
2019-04-27T11:47:46.313Z,49.00
2019-04-27T11:50:18.863Z,48.90
2019-04-27T11:52:48.323Z,49.00
2019-04-27T11:55:18.070Z,50.70
2019-04-27T11:57:47.496Z,50.80
2019-04-27T12:00:20.428Z,51.70
2019-04-27T12:02:49.863Z,51.60
2019-04-27T12:05:19.765Z,51.50
2019-04-27T12:07:49.284Z,51.50
2019-04-27T12:10:19.299Z,51.90
2019-04-27T12:12:48.767Z,52.40
2019-04-27T12:15:21.325Z,52.80
2019-04-27T12:17:50.820Z,53.10
2019-04-27T12:20:20.439Z,52.50
2019-04-27T12:22:49.900Z,52.20
2019-04-27T12:25:19.620Z,52.20
2019-04-27T12:27:53.591Z,52.50
2019-04-27T12:30:37.030Z,51.80
2019-04-27T12:33:06.583Z,51.90
2019-04-27T12:35:36.875Z,50.90
2019-04-27T12:38:06.407Z,51.70
2019-04-27T12:40:36.680Z,51.30
2019-04-27T12:43:06.235Z,50.70
2019-04-27T12:45:43.609Z,51.30
2019-04-27T12:48:12.365Z,50.10
2019-04-27T12:50:41.833Z,50.10
2019-04-27T12:53:21.827Z,50.10
2019-04-27T12:55:58.777Z,50.50
2019-04-27T12:58:31.044Z,49.50
2019-04-27T13:01:02.092Z,50.50
2019-04-27T13:03:31.502Z,50.70
2019-04-27T13:06:01.117Z,49.80
2019-04-27T13:08:36.517Z,49.90
2019-04-27T13:11:06.352Z,49.80
2019-04-27T13:13:44.597Z,49.80
2019-04-27T13:16:14.067Z,48.80
2019-04-27T13:18:43.469Z,49.40
2019-04-27T13:21:13.821Z,48.60
2019-04-27T13:23:43.307Z,48.60
2019-04-27T13:26:12.846Z,49.00
2019-04-27T13:28:46.590Z,48.40
2019-04-27T13:31:36.966Z,48.70
2019-04-27T13:34:06.425Z,48.20
2019-04-27T13:36:36.768Z,49.10
2019-04-27T13:39:06.943Z,48.10
2019-04-27T13:41:36.883Z,48.30
2019-04-27T13:44:09.147Z,49.40
2019-04-27T13:46:56.383Z,48.10
2019-04-27T13:49:27.489Z,47.60
2019-04-27T13:51:58.587Z,47.30
2019-04-27T13:54:29.177Z,47.30
2019-04-27T13:56:58.850Z,48.40
2019-04-27T13:59:33.923Z,47.00
2019-04-27T14:02:04.059Z,46.60
2019-04-27T14:04:36.344Z,46.70
2019-04-27T14:07:05.827Z,47.10
2019-04-27T14:09:35.241Z,46.90
2019-04-27T14:12:06.776Z,46.70
2019-04-27T14:14:36.220Z,47.40
2019-04-27T14:17:05.623Z,49.10
2019-04-27T14:19:39.477Z,49.90
2019-04-27T14:22:09.273Z,49.70
2019-04-27T14:24:40.243Z,50.20
2019-04-27T14:27:11.154Z,49.90
2019-04-27T14:29:40.781Z,49.60
2019-04-27T14:32:10.343Z,50.00
2019-04-27T14:34:39.743Z,50.00
2019-04-27T14:37:09.124Z,50.20
2019-04-27T14:39:39.046Z,50.40
2019-04-27T14:42:08.536Z,50.00
2019-04-27T14:44:44.084Z,49.90
2019-04-27T14:47:32.823Z,50.50
2019-04-27T14:50:02.227Z,50.00
2019-04-27T14:52:31.796Z,49.00
2019-04-27T14:55:02.270Z,50.00
2019-04-27T14:57:34.367Z,49.40
2019-04-27T15:00:10.062Z,49.30
2019-04-27T15:02:40.608Z,49.30
2019-04-27T15:05:10.232Z,47.20
2019-04-27T15:07:48.470Z,48.90
2019-04-27T15:10:18.614Z,46.90
2019-04-27T15:12:48.079Z,47.70
2019-04-27T15:15:21.439Z,47.10
2019-04-27T15:17:51.156Z,48.10
2019-04-27T15:20:22.674Z,47.10
2019-04-27T15:22:56.853Z,47.70
2019-04-27T15:25:24.596Z,46.80
2019-04-27T15:27:55.631Z,46.00
2019-04-27T15:30:27.635Z,47.00
2019-04-27T15:33:04.543Z,46.40
2019-04-27T15:35:40.584Z,46.10
2019-04-27T15:38:13.935Z,46.00
2019-04-27T15:40:54.278Z,46.50
2019-04-27T15:43:23.020Z,46.50
2019-04-27T15:45:57.553Z,46.20
2019-04-27T15:48:25.105Z,46.60
2019-04-27T15:51:00.980Z,45.80
2019-04-27T15:53:29.724Z,46.20
2019-04-27T15:56:01.759Z,46.10
2019-04-27T15:58:33.140Z,45.90
2019-04-27T16:01:06.682Z,46.90
2019-04-27T16:03:34.218Z,47.10
2019-04-27T16:06:08.250Z,46.00
2019-04-27T16:08:38.186Z,44.80
2019-04-27T16:11:11.722Z,45.00
2019-04-27T16:13:38.367Z,44.70
2019-04-27T16:16:08.552Z,45.50
2019-04-27T16:18:38.850Z,45.00
2019-04-27T16:21:10.810Z,44.80
2019-04-27T16:23:42.832Z,45.20
2019-04-27T16:26:14.973Z,44.80
2019-04-27T16:28:43.185Z,44.20
2019-04-27T16:31:15.914Z,45.10
2019-04-27T16:33:49.605Z,44.40
2019-04-27T16:36:22.043Z,44.70
2019-04-27T16:39:03.591Z,44.50
2019-04-27T16:41:37.468Z,44.70
2019-04-27T16:44:25.119Z,44.20
2019-04-27T16:46:54.663Z,44.70
2019-04-27T16:49:33.242Z,45.00
2019-04-27T16:52:11.624Z,44.40
2019-04-27T16:54:40.147Z,45.20
2019-04-27T16:57:10.374Z,45.30
2019-04-27T16:59:46.038Z,45.60
2019-04-27T17:02:11.022Z,44.80
2019-04-27T17:04:44.617Z,44.20
2019-04-27T17:07:13.151Z,44.30
2019-04-27T17:09:49.453Z,44.60
2019-04-27T17:12:23.730Z,44.10
2019-04-27T17:15:10.646Z,44.00
2019-04-27T17:17:50.988Z,44.60
2019-04-27T17:20:21.363Z,43.90
2019-04-27T17:22:53.400Z,44.30
2019-04-27T17:25:23.436Z,44.10
2019-04-27T17:28:04.049Z,44.00
2019-04-27T17:30:39.718Z,44.40
2019-04-27T17:33:11.835Z,44.20
2019-04-27T17:35:41.276Z,43.80
2019-04-27T17:38:12.475Z,43.60
2019-04-27T17:40:43.104Z,43.70
2019-04-27T17:43:12.484Z,43.50
2019-04-27T17:45:41.943Z,44.00
2019-04-27T17:48:14.161Z,44.00
2019-04-27T17:50:48.971Z,44.20
2019-04-27T17:53:20.409Z,44.20
2019-04-27T17:55:55.151Z,44.00
2019-04-27T17:58:23.773Z,43.70
2019-04-27T18:00:53.155Z,43.00
2019-04-27T18:03:22.561Z,43.90
2019-04-27T18:05:52.125Z,44.00
2019-04-27T18:08:25.083Z,43.50
2019-04-27T18:11:00.319Z,43.00
2019-04-27T18:13:28.867Z,43.30
2019-04-27T18:16:09.002Z,43.90
2019-04-27T18:18:40.427Z,43.80
2019-04-27T18:21:10.697Z,43.50
2019-04-27T18:23:45.390Z,43.50
2019-04-27T18:26:19.103Z,43.30
2019-04-27T18:28:53.899Z,43.40
2019-04-27T18:31:23.564Z,44.00
2019-04-27T18:33:53.144Z,43.40
2019-04-27T18:36:22.559Z,43.10
2019-04-27T18:38:52.408Z,44.10
2019-04-27T18:41:21.795Z,43.20
2019-04-27T18:43:54.684Z,42.90
2019-04-27T18:46:24.801Z,42.70
2019-04-27T18:48:55.164Z,42.60
2019-04-27T18:51:38.485Z,42.90
2019-04-27T18:54:08.175Z,43.30
2019-04-27T18:56:41.459Z,44.30
2019-04-27T18:59:08.909Z,44.40
2019-04-27T19:01:38.375Z,43.70
2019-04-27T19:04:08.694Z,43.80
2019-04-27T19:06:39.147Z,44.10
2019-04-27T19:09:08.965Z,44.20
2019-04-27T19:11:53.378Z,44.10
2019-04-27T19:14:13.069Z,44.60
2019-04-27T19:16:45.183Z,44.70
2019-04-27T19:19:15.372Z,44.60
2019-04-27T19:21:44.747Z,44.40
2019-04-27T19:24:14.152Z,45.00
2019-04-27T19:26:50.911Z,44.40
2019-04-27T19:29:21.999Z,45.50
2019-04-27T19:32:02.114Z,44.70
2019-04-27T19:34:31.563Z,44.60
2019-04-27T19:37:01.104Z,45.00
2019-04-27T19:39:30.572Z,45.30
2019-04-27T19:42:03.030Z,45.70
2019-04-27T19:44:31.314Z,46.00
2019-04-27T19:47:00.762Z,45.80
2019-04-27T19:49:31.710Z,45.50
2019-04-27T19:52:01.447Z,45.50
2019-04-27T19:54:32.471Z,45.80
2019-04-27T19:57:01.871Z,46.00
2019-04-27T19:59:32.979Z,46.00
2019-04-27T20:02:04.171Z,45.80
2019-04-27T20:04:35.158Z,45.50
2019-04-27T20:07:04.898Z,45.80
2019-04-27T20:09:35.989Z,46.10
2019-04-27T20:12:07.673Z,45.80
2019-04-27T20:14:54.863Z,45.70
2019-04-27T20:17:27.443Z,45.70
2019-04-27T20:19:57.511Z,45.80
2019-04-27T20:22:27.175Z,46.00
2019-04-27T20:24:56.679Z,45.90
2019-04-27T20:27:26.254Z,46.30
2019-04-27T20:29:55.714Z,46.60
2019-04-27T20:32:25.120Z,45.90
2019-04-27T20:34:54.632Z,46.70
2019-04-27T20:37:25.100Z,47.00
2019-04-27T20:39:54.723Z,46.20
2019-04-27T20:42:24.513Z,46.10
2019-04-27T20:44:53.935Z,45.40
2019-04-27T20:47:23.340Z,45.70
2019-04-27T20:49:52.795Z,45.70
2019-04-27T20:52:23.822Z,46.20
2019-04-27T20:54:53.233Z,46.70
2019-04-27T20:57:22.706Z,46.40
2019-04-27T20:59:52.291Z,46.40
2019-04-27T21:02:35.445Z,46.40
2019-04-27T21:05:12.592Z,46.20
2019-04-27T21:07:46.531Z,46.70
2019-04-27T21:10:15.979Z,46.60
2019-04-27T21:12:45.375Z,46.70
2019-04-27T21:15:14.838Z,46.60
2019-04-27T21:17:44.294Z,46.80
2019-04-27T21:20:13.836Z,46.80
2019-04-27T21:22:43.220Z,47.10
2019-04-27T21:25:12.851Z,47.10
2019-04-27T21:27:42.248Z,47.10
2019-04-27T21:30:12.111Z,47.20
2019-04-27T21:32:41.504Z,47.30
2019-04-27T21:35:11.496Z,47.00
2019-04-27T21:37:41.038Z,47.50
2019-04-27T21:40:18.220Z,47.40
2019-04-27T21:42:47.883Z,47.60
2019-04-27T21:45:18.675Z,47.30
2019-04-27T21:47:48.447Z,47.60
2019-04-27T21:50:34.991Z,47.60
2019-04-27T21:53:06.034Z,47.40
2019-04-27T21:55:37.082Z,47.80
2019-04-27T21:58:06.471Z,47.60
2019-04-27T22:00:42.779Z,47.80
2019-04-27T22:03:16.811Z,48.40
2019-04-27T22:05:46.283Z,48.70
2019-04-27T22:08:15.727Z,48.10
2019-04-27T22:10:45.123Z,48.20
2019-04-27T22:13:14.597Z,48.40
2019-04-27T22:15:43.968Z,48.50
2019-04-27T22:18:13.372Z,47.80
2019-04-27T22:20:42.842Z,47.70
2019-04-27T22:23:28.871Z,48.70
2019-04-27T22:25:58.263Z,48.90
2019-04-27T22:28:27.723Z,48.30
2019-04-27T22:30:57.121Z,48.00
2019-04-27T22:33:26.514Z,48.20
2019-04-27T22:35:55.896Z,48.40
2019-04-27T22:38:25.363Z,49.30
2019-04-27T22:41:02.661Z,48.80
2019-04-27T22:43:45.523Z,49.00
2019-04-27T22:46:22.505Z,48.60
2019-04-27T22:48:51.945Z,48.90
2019-04-27T22:51:21.351Z,49.50
2019-04-27T22:53:51.277Z,49.10
2019-04-27T22:56:22.316Z,48.60
2019-04-27T22:59:05.887Z,48.60
2019-04-27T23:01:53.587Z,48.60
2019-04-27T23:04:27.156Z,48.60
2019-04-27T23:06:56.539Z,49.10
2019-04-27T23:09:26.623Z,49.30
2019-04-27T23:11:56.078Z,49.40
2019-04-27T23:14:25.499Z,49.10
2019-04-27T23:17:03.184Z,49.60
2019-04-27T23:19:32.838Z,49.10
2019-04-27T23:22:02.310Z,49.00
2019-04-27T23:24:31.700Z,50.00
2019-04-27T23:27:03.389Z,49.00
2019-04-27T23:29:33.173Z,49.60
2019-04-27T23:32:04.566Z,49.40
2019-04-27T23:34:33.969Z,49.70
2019-04-27T23:37:03.449Z,49.60
2019-04-27T23:39:35.534Z,49.50
2019-04-27T23:42:07.395Z,49.40
2019-04-27T23:44:36.850Z,49.60
2019-04-27T23:47:06.381Z,49.00
2019-04-27T23:49:35.826Z,49.20
2019-04-27T23:52:12.735Z,49.60
2019-04-27T23:54:42.948Z,49.60
2019-04-27T23:57:12.490Z,49.70
2019-04-27T23:59:41.858Z,49.60
